Time;durP1;ratioP1;P1;durP2;ratioP2;P2;SDS_P1;SDS_P2;PMS_P1;PMS_P2;Temp;Humidity;BMP_temperature;BMP_pressure;BME280_temperature;BME280_humidity;BME280_pressure;Samples;Min_cycle;Max_cycle;Signal;HPM_P1;HPM_P2
2021/07/12 00:01:29;;;;;;;27.48;22.77;;;15.30;99.90;;;;;;5060178;28;20079;-65
2021/07/12 00:03:55;;;;;;;29.52;21.95;;;15.30;99.90;;;;;;5034583;28;20033;-64
2021/07/12 00:06:20;;;;;;;35.47;22.10;;;15.30;99.90;;;;;;5034322;28;20029;-65
2021/07/12 00:08:46;;;;;;;30.05;22.73;;;15.20;99.90;;;;;;5034066;28;20025;-64
2021/07/12 00:11:11;;;;;;;27.13;23.80;;;15.20;99.90;;;;;;5034444;28;20553;-65
2021/07/12 00:13:37;;;;;;;30.92;23.05;;;15.20;99.90;;;;;;5034153;28;20029;-65
2021/07/12 00:16:04;;;;;;;26.63;22.35;;;15.20;99.90;;;;;;5072383;28;20067;-64
2021/07/12 00:18:31;;;;;;;30.23;22.92;;;15.10;99.90;;;;;;5058274;28;20028;-64
2021/07/12 00:20:56;;;;;;;31.13;22.73;;;15.10;99.90;;;;;;5074393;28;20024;-65
2021/07/12 00:23:22;;;;;;;30.98;23.65;;;15.10;99.90;;;;;;5074267;28;20028;-65
2021/07/12 00:25:48;;;;;;;29.52;22.05;;;15.00;99.90;;;;;;5074176;28;20028;-65
2021/07/12 00:28:14;;;;;;;25.65;21.08;;;15.10;99.90;;;;;;5070990;28;20028;-65
2021/07/12 00:30:39;;;;;;;27.90;20.30;;;15.10;99.90;;;;;;5071284;28;20033;-64
2021/07/12 00:33:05;;;;;;;22.63;19.52;;;15.10;99.90;;;;;;5071475;28;20077;-64
2021/07/12 00:35:30;;;;;;;26.92;21.10;;;15.00;99.90;;;;;;5074102;28;20028;-65
2021/07/12 00:37:56;;;;;;;30.30;22.17;;;15.00;99.90;;;;;;5073654;28;20392;-64
2021/07/12 00:40:26;;;;;;;25.98;20.58;;;15.00;99.90;;;;;;5073990;28;20402;-65
2021/07/12 00:42:52;;;;;;;27.35;22.70;;;14.90;99.90;;;;;;5071202;28;20025;-62
2021/07/12 00:45:23;;;;;;;30.02;22.88;;;15.00;99.90;;;;;;5072578;28;20059;-63
2021/07/12 00:47:51;;;;;;;28.63;23.30;;;14.90;99.90;;;;;;5070577;28;20078;-62
2021/07/12 00:50:18;;;;;;;27.70;23.17;;;15.00;99.90;;;;;;5074040;28;20016;-63
2021/07/12 00:52:45;;;;;;;36.33;25.40;;;15.00;99.90;;;;;;5073952;28;20036;-62
2021/07/12 00:55:19;;;;;;;28.35;22.50;;;15.00;99.90;;;;;;5073663;28;20086;-64
2021/07/12 00:57:44;;;;;;;;;;;15.00;99.90;;;;;;5070128;28;20131;-62
2021/07/12 01:00:12;;;;;;;31.20;24.02;;;15.00;99.90;;;;;;5054096;28;20409;-63
2021/07/12 01:02:38;;;;;;;32.90;24.77;;;15.00;99.90;;;;;;5033657;28;20581;-63
2021/07/12 01:05:07;;;;;;;33.35;23.98;;;14.90;99.90;;;;;;5033309;28;20037;-63
2021/07/12 01:07:33;;;;;;;36.67;25.33;;;15.00;99.90;;;;;;5033212;28;20022;-63
2021/07/12 01:09:59;;;;;;;35.65;26.25;;;14.90;99.90;;;;;;5036401;28;20030;-63
2021/07/12 01:12:40;;;;;;;30.60;23.05;;;15.00;99.90;;;;;;5073659;28;20040;-63
2021/07/12 01:15:17;;;;;;;31.45;23.13;;;15.00;99.90;;;;;;5072169;28;20074;-62
2021/07/12 01:18:00;;;;;;;32.15;25.45;;;15.00;99.90;;;;;;5060291;28;20033;-63
2021/07/12 01:20:45;;;;;;;33.30;25.88;;;14.90;99.90;;;;;;5057562;28;20029;-62
2021/07/12 01:23:15;;;;;;;41.55;26.55;;;14.90;99.90;;;;;;5073304;28;20024;-63
2021/07/12 01:26:18;;;;;;;35.05;25.73;;;14.90;99.90;;;;;;5073293;28;20028;-62
2021/07/12 01:29:01;;;;;;;36.47;24.90;;;14.90;99.90;;;;;;5072779;28;20099;-62
2021/07/12 01:31:48;;;;;;;30.85;23.42;;;14.90;99.90;;;;;;5071105;28;20367;-62
2021/07/12 01:34:26;;;;;;;34.65;24.90;;;14.90;99.90;;;;;;5073048;28;20104;-63
2021/07/12 01:37:09;;;;;;;33.80;24.98;;;14.80;99.90;;;;;;5071397;28;20029;-63
2021/07/12 01:39:57;;;;;;;34.67;24.88;;;14.80;99.90;;;;;;5068966;28;20094;-63
2021/07/12 01:42:58;;;;;;;38.70;25.45;;;14.90;99.90;;;;;;5072079;28;20105;-62
2021/07/12 01:45:27;;;;;;;34.00;24.45;;;14.80;99.90;;;;;;5071468;28;20025;-62
2021/07/12 01:48:04;;;;;;;32.40;24.67;;;14.90;99.90;;;;;;5072379;28;20033;-63
2021/07/12 01:50:43;;;;;;;32.22;25.67;;;14.90;99.90;;;;;;5070495;28;20131;-62
2021/07/12 01:53:18;;;;;;;35.67;25.55;;;14.90;99.90;;;;;;5072851;28;20024;-62
2021/07/12 01:56:21;;;;;;;38.92;25.42;;;14.80;99.90;;;;;;5072483;28;20089;-62
2021/07/12 01:58:57;;;;;;;33.72;25.42;;;14.80;99.90;;;;;;5072134;28;20021;-63
2021/07/12 02:01:26;;;;;;;33.75;25.33;;;14.80;99.90;;;;;;5066935;28;20032;-63
2021/07/12 02:03:54;;;;;;;41.53;27.20;;;14.70;99.90;;;;;;5072510;28;20027;-63
2021/07/12 02:06:20;;;;;;;39.92;26.92;;;14.70;99.90;;;;;;5070733;28;20505;-62
2021/07/12 02:08:49;;;;;;;38.38;27.70;;;14.70;99.90;;;;;;5071806;28;20035;-63
2021/07/12 02:11:16;;;;;;;36.70;24.85;;;14.60;99.90;;;;;;5068841;28;20029;-62
2021/07/12 02:13:44;;;;;;;36.47;25.27;;;14.60;99.90;;;;;;5072072;28;20031;-63
2021/07/12 02:16:10;;;;;;;35.38;25.55;;;14.60;99.90;;;;;;5070510;28;20094;-62
2021/07/12 02:18:37;;;;;;;30.17;25.73;;;14.60;99.90;;;;;;5051745;28;20520;-63
2021/07/12 02:21:04;;;;;;;40.30;26.17;;;14.60;99.90;;;;;;5068179;28;20032;-62
2021/07/12 02:23:31;;;;;;;36.30;27.80;;;14.60;99.90;;;;;;5070823;28;20056;-63
2021/07/12 02:25:58;;;;;;;41.55;27.50;;;14.60;99.90;;;;;;5071860;28;20032;-63
2021/07/12 02:28:26;;;;;;;33.13;24.83;;;14.60;99.90;;;;;;5071565;28;20647;-62
2021/07/12 02:30:53;;;;;;;35.20;25.08;;;14.60;99.90;;;;;;5068048;28;20082;-62
2021/07/12 02:33:19;;;;;;;35.03;26.13;;;14.60;99.90;;;;;;5072254;28;20621;-62
2021/07/12 02:35:46;;;;;;;37.47;26.60;;;14.50;99.90;;;;;;5071865;28;20072;-62
2021/07/12 02:38:12;;;;;;;34.65;25.83;;;14.50;99.90;;;;;;5071607;28;20081;-62
2021/07/12 02:40:38;;;;;;;38.97;27.40;;;14.50;99.90;;;;;;5069061;28;20107;-62
2021/07/12 02:43:04;;;;;;;40.00;27.05;;;14.50;99.90;;;;;;5071693;28;20025;-63
2021/07/12 02:45:31;;;;;;;36.15;27.17;;;14.50;99.90;;;;;;5070381;28;20028;-63
2021/07/12 02:47:57;;;;;;;42.10;27.30;;;14.50;99.90;;;;;;5071218;28;20036;-63
2021/07/12 02:50:24;;;;;;;32.47;25.20;;;14.50;99.90;;;;;;5068847;28;20017;-63
2021/07/12 02:53:03;;;;;;;34.20;25.33;;;14.40;99.90;;;;;;5071754;28;20025;-63
2021/07/12 02:55:29;;;;;;;37.75;26.73;;;14.40;99.90;;;;;;5071474;28;20040;-63
2021/07/12 02:57:54;;;;;;;37.15;25.15;;;14.40;99.90;;;;;;5071267;28;20021;-63
2021/07/12 03:00:21;;;;;;;34.80;26.52;;;14.30;99.90;;;;;;5068691;28;20046;-63
2021/07/12 03:02:46;;;;;;;37.42;25.80;;;14.30;99.90;;;;;;5071454;28;20028;-63
2021/07/12 03:05:12;;;;;;;30.63;24.85;;;14.40;99.90;;;;;;5071285;28;20078;-62
2021/07/12 03:08:07;;;;;;;33.67;26.50;;;14.30;99.90;;;;;;5070874;28;20029;-63
2021/07/12 03:10:42;;;;;;;40.08;26.75;;;14.30;99.90;;;;;;5068580;28;20035;-63
2021/07/12 03:13:10;;;;;;;35.42;25.65;;;14.30;99.90;;;;;;5068980;28;20104;-62
2021/07/12 03:15:42;;;;;;;35.30;26.38;;;14.30;99.90;;;;;;5070066;28;20094;-63
2021/07/12 03:18:28;;;;;;;41.22;28.08;;;14.20;99.90;;;;;;5054537;28;20025;-62
2021/07/12 03:20:59;;;;;;;37.05;25.58;;;14.30;99.90;;;;;;5061190;28;20070;-62
2021/07/12 03:23:27;;;;;;;35.45;25.55;;;14.40;99.90;;;;;;5071246;28;20477;-62
2021/07/12 03:25:58;;;;;;;36.47;24.92;;;14.50;99.90;;;;;;5070855;28;20083;-62
2021/07/12 03:28:24;;;;;;;32.67;24.75;;;14.50;99.90;;;;;;5071014;28;20021;-62
2021/07/12 03:30:50;;;;;;;36.78;25.35;;;14.50;99.90;;;;;;5069470;28;20493;-63
2021/07/12 03:33:19;;;;;;;33.25;24.77;;;14.50;99.90;;;;;;5071159;28;20470;-62
2021/07/12 03:35:48;;;;;;;33.55;23.95;;;14.50;99.90;;;;;;5070730;28;20127;-62
2021/07/12 03:38:16;;;;;;;37.85;24.95;;;14.60;99.90;;;;;;5070761;28;20105;-63
2021/07/12 03:40:43;;;;;;;32.65;24.20;;;14.60;99.90;;;;;;5068132;28;20037;-63
2021/07/12 03:43:11;;;;;;;31.67;23.50;;;14.60;99.90;;;;;;5069757;28;20393;-62
2021/07/12 03:45:38;;;;;;;34.10;23.67;;;14.60;99.90;;;;;;5059938;28;20112;-62
2021/07/12 03:48:05;;;;;;;27.10;22.67;;;14.60;99.90;;;;;;5046211;28;20028;-63
2021/07/12 03:50:31;;;;;;;30.80;22.98;;;14.70;99.90;;;;;;5050832;28;20486;-63
2021/07/12 03:53:01;;;;;;;29.20;23.42;;;14.70;99.90;;;;;;5049524;28;20104;-62
2021/07/12 03:55:27;;;;;;;26.85;21.33;;;14.70;99.90;;;;;;5050879;28;20032;-62
2021/07/12 03:57:52;;;;;;;29.42;22.08;;;14.80;99.90;;;;;;5064186;28;20029;-62
2021/07/12 04:00:21;;;;;;;27.45;21.83;;;14.80;99.90;;;;;;5069557;28;20051;-63
2021/07/12 04:02:47;;;;;;;26.70;21.25;;;14.90;99.90;;;;;;5070624;28;20067;-62
2021/07/12 04:05:14;;;;;;;26.25;20.92;;;15.00;99.90;;;;;;5070609;28;20533;-62
2021/07/12 04:07:40;;;;;;;34.30;20.98;;;15.00;99.90;;;;;;5068837;28;20025;-62
2021/07/12 04:10:09;;;;;;;26.23;19.75;;;15.10;99.90;;;;;;5070824;28;20029;-62
2021/07/12 04:12:36;;;;;;;30.33;21.15;;;15.10;99.90;;;;;;5070744;28;20023;-62
2021/07/12 04:15:03;;;;;;;24.85;19.38;;;15.20;99.90;;;;;;5068965;28;20021;-63
2021/07/12 04:17:28;;;;;;;28.08;18.88;;;15.30;99.90;;;;;;5065645;28;20044;-63
2021/07/12 04:19:54;;;;;;;24.40;19.10;;;15.40;99.90;;;;;;5070691;28;20028;-62
2021/07/12 04:22:20;;;;;;;22.75;17.15;;;15.50;99.90;;;;;;5070506;28;20025;-63
2021/07/12 04:24:46;;;;;;;20.52;17.52;;;15.60;99.90;;;;;;5068118;28;20029;-62
2021/07/12 04:27:11;;;;;;;21.17;18.00;;;15.70;99.90;;;;;;5070425;28;20393;-63
2021/07/12 04:29:37;;;;;;;23.83;17.38;;;15.80;99.90;;;;;;5067393;28;20025;-62
2021/07/12 04:32:03;;;;;;;19.55;16.67;;;15.90;99.90;;;;;;5070332;28;20027;-62
2021/07/12 04:34:29;;;;;;;20.77;16.20;;;16.00;99.90;;;;;;5071386;28;20029;-63
2021/07/12 04:36:56;;;;;;;19.00;14.90;;;16.10;99.90;;;;;;5073796;28;20025;-63
2021/07/12 04:39:22;;;;;;;17.33;15.50;;;16.20;99.90;;;;;;5072289;28;20020;-63
2021/07/12 04:41:47;;;;;;;20.67;15.63;;;16.30;99.90;;;;;;5072421;28;20023;-62
2021/07/12 04:44:13;;;;;;;24.17;15.98;;;16.30;99.90;;;;;;5071280;28;20056;-62
2021/07/12 04:46:39;;;;;;;20.77;14.40;;;16.50;99.90;;;;;;5072422;28;20107;-63
2021/07/12 04:49:05;;;;;;;17.33;13.73;;;16.70;99.90;;;;;;5073503;28;20097;-63
2021/07/12 04:51:31;;;;;;;14.27;12.77;;;17.20;99.90;;;;;;5095405;22;20049;-62
2021/07/12 04:53:57;;;;;;;14.43;12.70;;;17.80;99.90;;;;;;5072350;28;20025;-62
2021/07/12 04:56:23;;;;;;;13.15;11.23;;;18.50;99.90;;;;;;5073114;28;20051;-63
2021/07/12 04:58:49;;;;;;;13.75;11.13;;;19.10;99.90;;;;;;5073232;28;20024;-62
2021/07/12 05:01:18;;;;;;;14.93;11.50;;;19.40;99.90;;;;;;5056765;28;20033;-63
2021/07/12 05:03:43;;;;;;;12.07;10.18;;;19.80;99.90;;;;;;5053415;28;20167;-63
2021/07/12 05:06:09;;;;;;;11.98;10.27;;;20.00;99.90;;;;;;5053057;28;20112;-63
2021/07/12 05:08:35;;;;;;;12.63;9.68;;;20.40;99.90;;;;;;5035138;28;20410;-63
2021/07/12 05:11:02;;;;;;;14.48;9.05;;;20.70;99.90;;;;;;5065861;28;20078;-62
2021/07/12 05:13:31;;;;;;;13.68;9.50;;;20.60;99.90;;;;;;5073162;28;20044;-63
2021/07/12 05:15:57;;;;;;;12.05;9.02;;;20.40;99.90;;;;;;5072480;28;20033;-63
2021/07/12 05:18:23;;;;;;;12.80;9.20;;;20.00;99.90;;;;;;5072658;28;20031;-63
2021/07/12 05:20:51;;;;;;;13.80;9.27;;;20.10;99.90;;;;;;5071924;28;20409;-62
2021/07/12 05:23:17;;;;;;;12.13;9.57;;;20.30;99.90;;;;;;5071370;28;20506;-63
2021/07/12 05:25:43;;;;;;;11.90;9.45;;;20.40;99.90;;;;;;5072827;28;20039;-63
2021/07/12 05:28:09;;;;;;;10.90;9.15;;;20.70;99.90;;;;;;5072535;28;20028;-63
2021/07/12 05:30:34;;;;;;;10.45;9.32;;;20.50;99.90;;;;;;5071898;28;20102;-63
2021/07/12 05:33:00;;;;;;;12.55;8.93;;;20.90;99.90;;;;;;5072044;28;20107;-63
2021/07/12 05:35:26;;;;;;;11.75;9.20;;;21.10;99.90;;;;;;5072530;28;20021;-64
2021/07/12 05:37:51;;;;;;;11.38;8.63;;;21.50;99.90;;;;;;5072487;28;20040;-63
2021/07/12 05:40:17;;;;;;;16.40;8.60;;;21.90;99.90;;;;;;5071615;28;20033;-62
2021/07/12 05:42:42;;;;;;;13.45;8.75;;;21.90;99.90;;;;;;5072574;28;20047;-62
2021/07/12 05:45:09;;;;;;;18.88;9.07;;;21.90;99.90;;;;;;5071020;28;20039;-63
2021/07/12 05:47:34;;;;;;;11.15;7.93;;;21.70;99.90;;;;;;5072222;28;20029;-63
2021/07/12 05:50:00;;;;;;;10.85;8.70;;;21.60;99.90;;;;;;5071644;28;20442;-64
2021/07/12 05:52:26;;;;;;;9.77;8.40;;;21.40;99.90;;;;;;5072211;28;20039;-63
2021/07/12 05:54:51;;;;;;;11.73;8.90;;;21.20;99.90;;;;;;5072444;28;20020;-63
2021/07/12 05:57:17;;;;;;;10.45;8.77;;;21.30;99.90;;;;;;5072133;28;20024;-63
2021/07/12 05:59:42;;;;;;;11.48;8.80;;;21.40;99.90;;;;;;5070551;28;20143;-62
2021/07/12 06:02:08;;;;;;;9.52;8.38;;;21.90;99.90;;;;;;5072252;28;20100;-63
2021/07/12 06:04:33;;;;;;;9.00;7.68;;;21.90;99.90;;;;;;5072085;28;20564;-63
2021/07/12 06:06:59;;;;;;;9.45;8.18;;;22.30;99.90;;;;;;5072092;28;20529;-63
2021/07/12 06:09:25;;;;;;;12.73;8.32;;;22.60;99.90;;;;;;5070980;28;20098;-62
2021/07/12 06:11:50;;;;;;;8.57;7.75;;;22.90;99.90;;;;;;5071904;28;20052;-63
2021/07/12 06:14:16;;;;;;;12.18;7.60;;;23.00;99.90;;;;;;5071870;28;20508;-63
2021/07/12 06:16:41;;;;;;;12.27;8.10;;;23.40;99.90;;;;;;5071682;28;20021;-63
2021/07/12 06:19:07;;;;;;;11.50;8.25;;;23.90;99.90;;;;;;5071847;28;20158;-63
2021/07/12 06:21:33;;;;;;;11.45;7.60;;;23.90;99.90;;;;;;5072043;28;20037;-62
2021/07/12 06:23:58;;;;;;;10.02;8.10;;;24.30;99.90;;;;;;5071875;28;20027;-63
2021/07/12 06:26:24;;;;;;;9.02;7.72;;;24.80;99.40;;;;;;5069586;28;20034;-64
2021/07/12 06:28:49;;;;;;;11.68;7.25;;;25.50;99.20;;;;;;5070791;28;20059;-63
2021/07/12 06:31:15;;;;;;;7.30;6.47;;;26.30;98.20;;;;;;5070805;28;20024;-64
2021/07/12 06:33:40;;;;;;;7.43;6.57;;;27.00;96.40;;;;;;5071628;28;20021;-64
2021/07/12 06:36:07;;;;;;;9.05;6.53;;;28.60;93.80;;;;;;5070417;28;20028;-64
2021/07/12 06:38:33;;;;;;;12.40;7.15;;;29.40;92.50;;;;;;5071248;28;20029;-64
2021/07/12 06:40:59;;;;;;;12.52;7.40;;;29.30;91.10;;;;;;5071260;28;20063;-64
2021/07/12 06:43:25;;;;;;;11.70;6.40;;;29.60;89.80;;;;;;5071447;28;20033;-62
2021/07/12 06:45:50;;;;;;;8.30;6.10;;;29.90;90.10;;;;;;5070528;28;20035;-61
2021/07/12 06:48:16;;;;;;;12.18;7.28;;;30.60;88.70;;;;;;5071586;28;20028;-62
2021/07/12 06:50:41;;;;;;;8.45;5.57;;;30.50;85.60;;;;;;5071228;28;20028;-62
2021/07/12 06:53:07;;;;;;;6.53;5.55;;;29.90;87.40;;;;;;5071377;28;20024;-63
2021/07/12 06:55:33;;;;;;;8.85;5.78;;;30.90;86.50;;;;;;5067550;28;20040;-63
2021/07/12 06:58:00;;;;;;;6.88;6.18;;;30.90;82.20;;;;;;5070954;28;20021;-64
2021/07/12 07:00:26;;;;;;;7.65;5.35;;;31.30;81.50;;;;;;5070379;28;20103;-63
2021/07/12 07:02:52;;;;;;;6.45;5.05;;;30.70;81.10;;;;;;5069354;28;20020;-62
2021/07/12 07:05:17;;;;;;;8.93;5.75;;;30.00;84.60;;;;;;5070100;28;20496;-63
2021/07/12 07:07:43;;;;;;;7.07;5.35;;;30.30;83.80;;;;;;5069882;28;20037;-63
2021/07/12 07:10:09;;;;;;;6.28;5.38;;;30.60;83.30;;;;;;5071145;28;20032;-64
2021/07/12 07:12:35;;;;;;;7.10;5.35;;;30.80;83.40;;;;;;5070437;28;20021;-63
2021/07/12 07:15:00;;;;;;;6.88;5.15;;;31.20;80.20;;;;;;5069196;28;20555;-63
2021/07/12 07:17:26;;;;;;;6.22;5.30;;;32.30;78.70;;;;;;5070543;28;20024;-63
2021/07/12 07:19:52;;;;;;;6.43;5.13;;;31.90;77.20;;;;;;5071001;28;20074;-63
2021/07/12 07:22:18;;;;;;;5.47;4.82;;;31.80;76.50;;;;;;5070705;28;20028;-63
2021/07/12 07:24:43;;;;;;;5.03;4.15;;;31.80;75.80;;;;;;5069692;28;20040;-63
2021/07/12 07:27:09;;;;;;;4.95;4.40;;;31.10;76.00;;;;;;5070719;28;20647;-63
2021/07/12 07:29:35;;;;;;;5.10;4.60;;;31.80;76.50;;;;;;5069788;28;20064;-62
2021/07/12 07:32:01;;;;;;;6.53;4.78;;;31.20;75.80;;;;;;5069246;28;20117;-63
2021/07/12 07:34:28;;;;;;;6.35;3.97;;;32.00;76.50;;;;;;5069923;28;20028;-62
2021/07/12 07:36:56;;;;;;;6.18;4.65;;;32.00;77.20;;;;;;5070534;28;20021;-62
2021/07/12 07:39:22;;;;;;;4.70;4.22;;;32.60;73.20;;;;;;5070406;28;20012;-63
2021/07/12 07:41:47;;;;;;;5.18;4.65;;;33.30;73.10;;;;;;5069783;28;20024;-63
2021/07/12 07:44:14;;;;;;;4.78;3.80;;;33.70;72.30;;;;;;5070581;28;20051;-63
2021/07/12 07:46:40;;;;;;;4.63;3.97;;;33.30;70.70;;;;;;5069430;28;20021;-63
2021/07/12 07:49:07;;;;;;;10.38;4.25;;;32.60;69.80;;;;;;5070250;28;20482;-63
2021/07/12 07:51:34;;;;;;;6.68;4.05;;;32.10;71.70;;;;;;5069267;28;20027;-64
2021/07/12 07:54:00;;;;;;;5.22;4.18;;;32.40;72.30;;;;;;5070392;28;20024;-63
2021/07/12 07:56:25;;;;;;;4.70;3.30;;;33.60;68.10;;;;;;5070274;28;20029;-63
2021/07/12 07:58:51;;;;;;;3.80;3.50;;;33.10;69.10;;;;;;5070430;28;20025;-62
2021/07/12 08:01:16;;;;;;;4.25;3.35;;;33.40;67.90;;;;;;5069497;28;20542;-63
2021/07/12 08:03:42;;;;;;;5.20;3.28;;;32.60;69.40;;;;;;5070530;28;20370;-63
2021/07/12 08:06:08;;;;;;;3.60;3.03;;;32.60;70.30;;;;;;5070216;28;20036;-63
2021/07/12 08:08:33;;;;;;;3.35;3.00;;;32.90;68.10;;;;;;5072430;28;20063;-63
2021/07/12 08:10:59;;;;;;;4.90;3.22;;;32.20;69.60;;;;;;5073407;28;20028;-63
2021/07/12 08:13:24;;;;;;;4.07;3.10;;;31.80;72.30;;;;;;5074414;28;20108;-63
2021/07/12 08:15:50;;;;;;;4.25;2.88;;;31.70;70.40;;;;;;5071627;28;20028;-63
2021/07/12 08:18:16;;;;;;;6.82;3.00;;;32.30;70.60;;;;;;5073850;28;20036;-63
2021/07/12 08:20:45;;;;;;;6.00;2.63;;;32.40;70.60;;;;;;5073190;28;20504;-63
2021/07/12 08:23:10;;;;;;;6.10;3.08;;;32.80;68.70;;;;;;5074020;28;20393;-63
2021/07/12 08:25:36;;;;;;;3.75;2.47;;;33.50;67.90;;;;;;5073984;28;20020;-63
2021/07/12 08:28:03;;;;;;;3.33;2.20;;;34.10;67.40;;;;;;5073719;28;20104;-64
2021/07/12 08:30:29;;;;;;;3.97;2.40;;;33.80;65.20;;;;;;5073116;28;20388;-64
2021/07/12 08:32:54;;;;;;;3.22;2.28;;;34.10;66.50;;;;;;5072367;28;20016;-64
2021/07/12 08:35:20;;;;;;;4.90;2.40;;;34.50;63.30;;;;;;5073838;28;20067;-63
2021/07/12 08:37:49;;;;;;;2.35;2.15;;;34.20;63.50;;;;;;5073333;28;20501;-63
2021/07/12 08:40:16;;;;;;;8.98;2.00;;;33.90;62.20;;;;;;5072893;28;20794;-63
2021/07/12 08:42:42;;;;;;;2.33;2.13;;;34.40;63.80;;;;;;5073654;28;20033;-63
2021/07/12 08:45:08;;;;;;;3.65;2.15;;;34.60;62.30;;;;;;5072852;28;20029;-64
2021/07/12 08:47:35;;;;;;;2.70;2.03;;;34.20;61.80;;;;;;5073282;28;20028;-64
2021/07/12 08:50:01;;;;;;;3.17;1.83;;;34.10;61.70;;;;;;5072547;28;20021;-63
2021/07/12 08:52:26;;;;;;;1.85;1.75;;;33.40;62.10;;;;;;5073561;28;20089;-62
2021/07/12 08:54:52;;;;;;;2.42;2.00;;;33.50;61.90;;;;;;5073632;28;20115;-62
2021/07/12 08:57:17;;;;;;;2.55;1.90;;;33.90;61.40;;;;;;5073369;28;20025;-63
2021/07/12 08:59:43;;;;;;;4.35;1.92;;;33.60;63.30;;;;;;5072288;28;20033;-63
2021/07/12 09:02:09;;;;;;;3.63;2.30;;;34.40;61.90;;;;;;5072575;28;20029;-64
2021/07/12 09:04:38;;;;;;;3.25;1.98;;;34.20;62.30;;;;;;5072230;28;20029;-63
2021/07/12 09:07:08;;;;;;;2.85;2.35;;;33.70;60.60;;;;;;5073266;28;20105;-62
2021/07/12 09:09:35;;;;;;;3.75;2.05;;;33.60;61.80;;;;;;5073238;28;20025;-64
2021/07/12 09:12:15;;;;;;;1.80;1.70;;;33.50;60.50;;;;;;5073247;28;20074;-63
2021/07/12 09:14:58;;;;;;;2.05;1.80;;;33.60;62.80;;;;;;5071349;28;20051;-64
2021/07/12 09:17:32;;;;;;;3.67;1.77;;;33.80;60.30;;;;;;5072686;28;20024;-63
2021/07/12 09:19:58;;;;;;;2.45;1.73;;;32.90;62.00;;;;;;5071888;28;20028;-64
2021/07/12 09:22:31;;;;;;;2.10;1.90;;;32.60;62.20;;;;;;5072926;28;20031;-63
2021/07/12 09:25:00;;;;;;;2.75;1.90;;;32.30;63.30;;;;;;5072329;28;20060;-62
2021/07/12 09:27:30;;;;;;;2.60;1.83;;;31.80;63.40;;;;;;5071619;28;20027;-64
2021/07/12 09:30:09;;;;;;;3.38;1.88;;;31.80;67.90;;;;;;5071399;28;20775;-63
2021/07/12 09:32:36;;;;;;;2.17;1.98;;;32.40;63.60;;;;;;5072872;28;20098;-63
2021/07/12 09:35:09;;;;;;;2.35;1.88;;;31.80;66.20;;;;;;5071959;28;20035;-62
2021/07/12 09:37:38;;;;;;;2.28;1.83;;;32.40;61.10;;;;;;5071557;28;20112;-63
2021/07/12 09:40:07;;;;;;;4.03;2.10;;;31.80;62.80;;;;;;5071976;28;20028;-63
2021/07/12 09:42:33;;;;;;;2.75;1.70;;;32.10;62.60;;;;;;5072636;28;20120;-63
2021/07/12 09:45:08;;;;;;;4.45;1.90;;;31.80;61.40;;;;;;5071943;28;20115;-63
2021/07/12 09:47:36;;;;;;;1.92;1.50;;;31.90;63.30;;;;;;5071344;28;20039;-64
2021/07/12 09:50:11;;;;;;;2.00;1.80;;;31.50;64.50;;;;;;5054784;28;20017;-63
2021/07/12 09:52:47;;;;;;;3.88;2.03;;;31.40;63.80;;;;;;5072350;28;20100;-62
2021/07/12 09:55:15;;;;;;;2.35;2.15;;;31.50;64.00;;;;;;5072894;28;20025;-63
2021/07/12 09:57:41;;;;;;;8.82;2.28;;;31.40;63.70;;;;;;5071260;28;20029;-64
2021/07/12 10:00:09;;;;;;;2.20;1.95;;;31.10;62.50;;;;;;5071857;28;20031;-64
2021/07/12 10:02:37;;;;;;;5.15;1.80;;;30.90;65.00;;;;;;5072202;28;20078;-63
2021/07/12 10:05:06;;;;;;;2.60;1.92;;;30.90;63.90;;;;;;5072169;28;20032;-62
2021/07/12 10:07:32;;;;;;;3.15;1.95;;;30.80;63.50;;;;;;5070855;28;20036;-62
2021/07/12 10:10:00;;;;;;;4.15;2.35;;;30.70;66.00;;;;;;5071501;28;20785;-63
2021/07/12 10:12:27;;;;;;;3.35;1.92;;;30.40;66.40;;;;;;5071874;28;20087;-63
2021/07/12 10:14:54;;;;;;;2.90;2.03;;;30.40;66.50;;;;;;5071102;28;20038;-63
2021/07/12 10:17:20;;;;;;;2.55;1.77;;;29.70;65.50;;;;;;5070932;28;20031;-62
2021/07/12 10:19:46;;;;;;;2.95;2.17;;;29.90;68.70;;;;;;5069819;28;20040;-62
2021/07/12 10:22:13;;;;;;;2.85;2.20;;;29.70;68.20;;;;;;5069982;28;20120;-62
2021/07/12 10:24:47;;;;;;;3.70;2.15;;;29.40;67.50;;;;;;5070024;28;20074;-63
2021/07/12 10:27:27;;;;;;;2.72;2.15;;;29.50;70.10;;;;;;5070831;28;20534;-62
2021/07/12 10:29:57;;;;;;;4.25;2.03;;;30.00;68.90;;;;;;5069217;28;20063;-62
2021/07/12 10:32:27;;;;;;;2.15;1.83;;;30.20;68.20;;;;;;5069631;28;20024;-62
2021/07/12 10:34:55;;;;;;;3.78;2.20;;;30.30;68.70;;;;;;5070422;28;20036;-62
2021/07/12 10:37:23;;;;;;;2.53;1.98;;;30.10;68.70;;;;;;5068515;28;20036;-63
2021/07/12 10:39:59;;;;;;;6.35;3.00;;;30.20;68.40;;;;;;5069981;28;20103;-62
2021/07/12 10:42:50;;;;;;;4.55;1.88;;;30.70;68.50;;;;;;5069735;28;20473;-63
2021/07/12 10:45:20;;;;;;;2.28;1.90;;;30.60;66.90;;;;;;5069145;28;20079;-63
2021/07/12 10:47:47;;;;;;;3.35;1.65;;;30.30;66.50;;;;;;5070340;28;20040;-63
2021/07/12 10:50:35;;;;;;;2.85;1.90;;;30.00;69.00;;;;;;5069068;28;20450;-61
2021/07/12 10:53:15;;;;;;;2.15;1.83;;;29.60;67.90;;;;;;5090666;22;20520;-65
2021/07/12 10:56:13;;;;;;;2.50;1.60;;;29.50;66.90;;;;;;5069269;28;20036;-65
2021/07/12 10:58:40;;;;;;;2.40;1.90;;;29.80;67.70;;;;;;5062691;28;20032;-64
2021/07/12 11:01:07;;;;;;;2.47;1.63;;;29.80;68.90;;;;;;5063915;28;20489;-64
2021/07/12 11:03:36;;;;;;;1.92;1.73;;;29.40;67.20;;;;;;5048233;28;20033;-66
2021/07/12 11:06:08;;;;;;;4.07;1.70;;;29.10;67.30;;;;;;5050132;28;20076;-64
2021/07/12 11:08:53;;;;;;;2.87;1.80;;;28.80;68.50;;;;;;5067221;28;20025;-64
2021/07/12 11:11:18;;;;;;;2.55;1.60;;;28.80;69.50;;;;;;5060237;28;20275;-65
2021/07/12 11:14:10;;;;;;;2.40;1.60;;;28.60;69.20;;;;;;5066239;28;20082;-66
2021/07/12 11:16:46;;;;;;;2.17;1.70;;;28.50;68.90;;;;;;5061698;28;20045;-65
2021/07/12 11:19:28;;;;;;;2.90;1.65;;;28.70;69.40;;;;;;5068652;28;20048;-64
2021/07/12 11:22:14;;;;;;;2.00;1.80;;;29.30;70.70;;;;;;5066798;28;20062;-65
2021/07/12 11:25:06;;;;;;;3.15;1.70;;;29.40;69.20;;;;;;5065724;28;20032;-64
2021/07/12 11:27:39;;;;;;;4.18;1.58;;;29.20;66.10;;;;;;5061202;28;20029;-65
2021/07/12 11:30:30;;;;;;;2.20;1.40;;;29.00;66.60;;;;;;5063781;28;20040;-64
2021/07/12 11:32:56;;;;;;;2.72;1.65;;;28.60;68.60;;;;;;5060018;28;20028;-65
2021/07/12 11:35:22;;;;;;;2.95;1.40;;;28.50;68.60;;;;;;5062793;28;20028;-65
2021/07/12 11:37:49;;;;;;;2.50;1.83;;;28.40;68.00;;;;;;5066266;28;20036;-64
2021/07/12 11:40:15;;;;;;;3.03;1.90;;;28.20;68.30;;;;;;5069145;28;20035;-65
2021/07/12 11:42:42;;;;;;;1.80;1.48;;;27.90;69.80;;;;;;5063999;28;20820;-64
2021/07/12 11:45:19;;;;;;;1.70;1.52;;;28.00;72.40;;;;;;5067085;28;20537;-65
2021/07/12 11:47:45;;;;;;;1.98;1.50;;;28.00;72.00;;;;;;5066827;28;20052;-64
2021/07/12 11:50:14;;;;;;;2.25;1.65;;;28.10;72.20;;;;;;5064538;28;20037;-64
2021/07/12 11:52:42;;;;;;;2.17;1.50;;;28.10;71.00;;;;;;5070346;28;20061;-64
2021/07/12 11:55:13;;;;;;;2.20;1.50;;;28.00;70.80;;;;;;5070608;28;20056;-64
2021/07/12 11:57:39;;;;;;;2.70;1.55;;;27.90;72.70;;;;;;5070335;28;20060;-64
2021/07/12 12:00:22;;;;;;;1.60;1.50;;;27.70;73.60;;;;;;5065805;28;20516;-64
2021/07/12 12:02:59;;;;;;;1.58;1.42;;;27.80;72.90;;;;;;5069085;28;20032;-65
2021/07/12 12:05:26;;;;;;;2.80;1.60;;;27.80;74.30;;;;;;5070388;28;20029;-64
2021/07/12 12:07:57;;;;;;;1.73;1.48;;;27.70;74.00;;;;;;5052169;28;20073;-64
2021/07/12 12:10:23;;;;;;;4.10;1.60;;;28.00;75.40;;;;;;5065670;28;20024;-65
2021/07/12 12:12:54;;;;;;;1.70;1.55;;;27.90;75.30;;;;;;5070170;28;20047;-65
2021/07/12 12:15:30;;;;;;;5.28;1.67;;;27.90;75.90;;;;;;5068614;28;20119;-64
2021/07/12 12:17:58;;;;;;;3.60;1.60;;;28.10;74.50;;;;;;5054974;28;20025;-64
2021/07/12 12:20:27;;;;;;;2.25;1.48;;;28.10;74.20;;;;;;5053979;28;20048;-64
2021/07/12 12:23:01;;;;;;;2.47;1.58;;;28.30;75.20;;;;;;5070099;28;20063;-65
2021/07/12 12:25:31;;;;;;;1.67;1.20;;;28.00;73.90;;;;;;5070260;28;20478;-65
2021/07/12 12:27:57;;;;;;;1.75;1.35;;;28.10;74.20;;;;;;5069897;28;20047;-65
2021/07/12 12:30:23;;;;;;;1.60;1.50;;;28.10;75.80;;;;;;5066530;28;20506;-65
2021/07/12 12:32:57;;;;;;;1.58;1.30;;;27.90;75.50;;;;;;5070081;28;20027;-65
2021/07/12 12:35:26;;;;;;;5.38;1.50;;;28.00;73.90;;;;;;5070186;28;20025;-65
2021/07/12 12:37:53;;;;;;;5.05;1.65;;;28.00;74.80;;;;;;5069868;28;20040;-64
2021/07/12 12:40:26;;;;;;;1.42;1.33;;;28.00;76.10;;;;;;5048879;28;20438;-64
2021/07/12 12:42:54;;;;;;;2.03;1.38;;;27.70;76.50;;;;;;5070114;28;20035;-65
2021/07/12 12:45:25;;;;;;;2.25;1.45;;;27.50;74.30;;;;;;5068627;28;20029;-62
2021/07/12 12:47:50;;;;;;;4.20;1.35;;;27.30;74.60;;;;;;5069654;28;20094;-65